CheckWX is a tool to help pilots better visualize weather data.  It is not intended as a substitute for an official pre-flight weather briefing.

04:21:01 UTC

TJIG METAR
Fernando Luis Ribas Dominicci Airport
San Juan, Puerto Rico, USA
Current

6 hours ago

TJIG 012250Z 21005KT 10SM SCT040 28/23 A2988
Observed
Apr-1 @ 22:50 UTC
Wind
  • 210° at 5 KTS
Visibility
10 SM
Flight Rules
VFR
Cloud Levels
  • Scattered at 4,000' AGL
Temperature
28°C / 82°F
Dewpoint
23°C / 73°F
Humidity
74%
Altimeter
29.88" Hg
Pressure
1011.82 hPa
Previous

6 hours ago

TJIG 012155Z 18006KT 10SM SCT040 29/22 A2986
Observed
Apr-1 @ 21:55 UTC
Wind
  • 180° at 6 KTS
Visibility
10 SM
Flight Rules
VFR
Cloud Levels
  • Scattered at 4,000' AGL
Temperature
29°C / 84°F
Dewpoint
22°C / 72°F
Humidity
66%
Altimeter
29.86" Hg
Pressure
1011.22 hPa
Previous

7 hours ago

TJIG 012059Z 08005KT 10SM SCT040 30/21 A2985
Observed
Apr-1 @ 20:59 UTC
Wind
  • 080° at 5 KTS
Visibility
10 SM
Flight Rules
VFR
Cloud Levels
  • Scattered at 4,000' AGL
Temperature
30°C / 86°F
Dewpoint
21°C / 70°F
Humidity
59%
Altimeter
29.85" Hg
Pressure
1010.82 hPa